sensor_id;sensor_type;location;lat;lon;timestamp;temperature;humidity
26621;DHT22;14253;44.840;10.444;2022-11-20T00:01:20;8.40;99.90
26621;DHT22;14253;44.840;10.444;2022-11-20T00:03:47;8.30;99.90
26621;DHT22;14253;44.840;10.444;2022-11-20T00:06:15;8.20;99.90
26621;DHT22;14253;44.840;10.444;2022-11-20T00:08:42;8.20;99.90
26621;DHT22;14253;44.840;10.444;2022-11-20T00:11:14;8.10;99.90
26621;DHT22;14253;44.840;10.444;2022-11-20T00:13:45;8.00;99.90
26621;DHT22;14253;44.840;10.444;2022-11-20T00:16:14;8.00;99.90
26621;DHT22;14253;44.840;10.444;2022-11-20T00:18:40;8.00;99.90
26621;DHT22;14253;44.840;10.444;2022-11-20T00:21:14;8.00;99.90
26621;DHT22;14253;44.840;10.444;2022-11-20T00:23:41;7.90;99.90
26621;DHT22;14253;44.840;10.444;2022-11-20T00:26:09;7.90;99.90
26621;DHT22;14253;44.840;10.444;2022-11-20T00:28:36;7.90;99.90
26621;DHT22;14253;44.840;10.444;2022-11-20T00:31:14;7.90;99.90
26621;DHT22;14253;44.840;10.444;2022-11-20T00:33:41;7.80;99.90
26621;DHT22;14253;44.840;10.444;2022-11-20T00:36:19;7.80;99.90
26621;DHT22;14253;44.840;10.444;2022-11-20T00:38:45;7.70;99.90
26621;DHT22;14253;44.840;10.444;2022-11-20T00:41:13;7.70;99.90
26621;DHT22;14253;44.840;10.444;2022-11-20T00:43:40;7.70;99.90
26621;DHT22;14253;44.840;10.444;2022-11-20T00:46:17;7.70;99.90
26621;DHT22;14253;44.840;10.444;2022-11-20T00:48:44;7.70;99.90
26621;DHT22;14253;44.840;10.444;2022-11-20T00:51:13;7.70;99.90
26621;DHT22;14253;44.840;10.444;2022-11-20T00:53:40;7.80;99.90
26621;DHT22;14253;44.840;10.444;2022-11-20T00:56:09;7.80;99.90
26621;DHT22;14253;44.840;10.444;2022-11-20T00:58:38;7.80;99.90
26621;DHT22;14253;44.840;10.444;2022-11-20T01:01:13;7.80;99.90
26621;DHT22;14253;44.840;10.444;2022-11-20T01:03:42;7.70;99.90
26621;DHT22;14253;44.840;10.444;2022-11-20T01:06:29;7.70;99.90
26621;DHT22;14253;44.840;10.444;2022-11-20T01:08:57;7.70;99.90
26621;DHT22;14253;44.840;10.444;2022-11-20T01:11:28;7.70;99.90
26621;DHT22;14253;44.840;10.444;2022-11-20T01:13:55;7.60;99.90
26621;DHT22;14253;44.840;10.444;2022-11-20T01:16:27;7.60;99.90
26621;DHT22;14253;44.840;10.444;2022-11-20T01:18:56;7.60;99.90
26621;DHT22;14253;44.840;10.444;2022-11-20T01:21:27;7.60;99.90
26621;DHT22;14253;44.840;10.444;2022-11-20T01:23:54;7.60;99.90
26621;DHT22;14253;44.840;10.444;2022-11-20T01:26:26;7.60;99.90
26621;DHT22;14253;44.840;10.444;2022-11-20T01:28:54;7.60;99.90
26621;DHT22;14253;44.840;10.444;2022-11-20T01:31:24;7.60;99.90
26621;DHT22;14253;44.840;10.444;2022-11-20T01:33:53;7.50;99.90
26621;DHT22;14253;44.840;10.444;2022-11-20T01:36:21;7.50;99.90
26621;DHT22;14253;44.840;10.444;2022-11-20T01:38:51;7.40;99.90
26621;DHT22;14253;44.840;10.444;2022-11-20T01:41:17;7.40;99.90
26621;DHT22;14253;44.840;10.444;2022-11-20T01:44:02;7.40;99.90
26621;DHT22;14253;44.840;10.444;2022-11-20T01:46:34;7.40;99.90
26621;DHT22;14253;44.840;10.444;2022-11-20T01:49:15;7.40;99.90
26621;DHT22;14253;44.840;10.444;2022-11-20T01:51:45;7.40;99.90
26621;DHT22;14253;44.840;10.444;2022-11-20T01:54:17;7.30;99.90
26621;DHT22;14253;44.840;10.444;2022-11-20T01:56:46;7.30;99.90
26621;DHT22;14253;44.840;10.444;2022-11-20T01:59:16;7.30;99.90
26621;DHT22;14253;44.840;10.444;2022-11-20T02:01:43;7.30;99.90
26621;DHT22;14253;44.840;10.444;2022-11-20T02:04:10;7.30;99.90
26621;DHT22;14253;44.840;10.444;2022-11-20T02:06:42;7.30;99.90
26621;DHT22;14253;44.840;10.444;2022-11-20T02:09:10;7.30;99.90
26621;DHT22;14253;44.840;10.444;2022-11-20T02:11:36;7.30;99.90
26621;DHT22;14253;44.840;10.444;2022-11-20T02:14:02;7.30;99.90
26621;DHT22;14253;44.840;10.444;2022-11-20T02:16:35;7.30;99.90
26621;DHT22;14253;44.840;10.444;2022-11-20T02:19:05;7.30;99.90
26621;DHT22;14253;44.840;10.444;2022-11-20T02:24:21;7.20;99.90
26621;DHT22;14253;44.840;10.444;2022-11-20T02:26:59;7.20;99.90
26621;DHT22;14253;44.840;10.444;2022-11-20T02:32:04;7.20;99.90
26621;DHT22;14253;44.840;10.444;2022-11-20T02:34:30;7.20;99.90
26621;DHT22;14253;44.840;10.444;2022-11-20T02:36:57;7.10;99.90
26621;DHT22;14253;44.840;10.444;2022-11-20T02:39:26;7.10;99.90
26621;DHT22;14253;44.840;10.444;2022-11-20T02:41:54;7.10;99.90
26621;DHT22;14253;44.840;10.444;2022-11-20T02:44:21;7.20;99.90
26621;DHT22;14253;44.840;10.444;2022-11-20T02:46:47;7.20;99.90
26621;DHT22;14253;44.840;10.444;2022-11-20T02:49:13;7.10;99.90
26621;DHT22;14253;44.840;10.444;2022-11-20T02:51:39;7.20;99.90
26621;DHT22;14253;44.840;10.444;2022-11-20T02:54:05;7.10;99.90
26621;DHT22;14253;44.840;10.444;2022-11-20T02:56:31;7.10;99.90
26621;DHT22;14253;44.840;10.444;2022-11-20T02:58:57;7.00;99.90
26621;DHT22;14253;44.840;10.444;2022-11-20T03:01:23;7.00;99.90
26621;DHT22;14253;44.840;10.444;2022-11-20T03:03:49;7.10;99.90
26621;DHT22;14253;44.840;10.444;2022-11-20T03:06:16;7.10;99.90
26621;DHT22;14253;44.840;10.444;2022-11-20T03:08:42;7.10;99.90
26621;DHT22;14253;44.840;10.444;2022-11-20T03:11:09;7.10;99.90
26621;DHT22;14253;44.840;10.444;2022-11-20T03:13:35;7.00;99.90
26621;DHT22;14253;44.840;10.444;2022-11-20T03:16:12;7.00;99.90
26621;DHT22;14253;44.840;10.444;2022-11-20T03:18:41;7.00;99.90
26621;DHT22;14253;44.840;10.444;2022-11-20T03:21:07;6.90;99.90
26621;DHT22;14253;44.840;10.444;2022-11-20T03:23:34;6.90;99.90
26621;DHT22;14253;44.840;10.444;2022-11-20T03:26:19;6.90;99.90
26621;DHT22;14253;44.840;10.444;2022-11-20T03:28:53;6.90;99.90
26621;DHT22;14253;44.840;10.444;2022-11-20T03:31:26;6.90;99.90
26621;DHT22;14253;44.840;10.444;2022-11-20T03:33:53;6.80;99.90
26621;DHT22;14253;44.840;10.444;2022-11-20T03:36:22;6.90;99.90
26621;DHT22;14253;44.840;10.444;2022-11-20T03:38:49;6.90;99.90
26621;DHT22;14253;44.840;10.444;2022-11-20T03:41:17;6.90;99.90
26621;DHT22;14253;44.840;10.444;2022-11-20T03:43:50;6.90;99.90
26621;DHT22;14253;44.840;10.444;2022-11-20T03:46:16;6.80;99.90
26621;DHT22;14253;44.840;10.444;2022-11-20T03:48:42;6.80;99.90
26621;DHT22;14253;44.840;10.444;2022-11-20T03:51:13;6.70;99.90
26621;DHT22;14253;44.840;10.444;2022-11-20T03:53:40;6.70;99.90
26621;DHT22;14253;44.840;10.444;2022-11-20T03:56:08;6.60;99.90
26621;DHT22;14253;44.840;10.444;2022-11-20T03:58:36;6.60;99.90
26621;DHT22;14253;44.840;10.444;2022-11-20T04:04:48;6.50;99.90
26621;DHT22;14253;44.840;10.444;2022-11-20T04:07:38;6.40;99.90
26621;DHT22;14253;44.840;10.444;2022-11-20T04:10:04;6.50;99.90
26621;DHT22;14253;44.840;10.444;2022-11-20T04:12:32;6.50;99.90
26621;DHT22;14253;44.840;10.444;2022-11-20T04:14:59;6.60;99.90
26621;DHT22;14253;44.840;10.444;2022-11-20T04:17:25;6.60;99.90
26621;DHT22;14253;44.840;10.444;2022-11-20T04:19:51;6.60;99.90
26621;DHT22;14253;44.840;10.444;2022-11-20T04:22:16;6.70;99.90
26621;DHT22;14253;44.840;10.444;2022-11-20T04:24:42;6.60;99.90
26621;DHT22;14253;44.840;10.444;2022-11-20T04:27:08;6.60;99.90
26621;DHT22;14253;44.840;10.444;2022-11-20T04:29:34;6.60;99.90
26621;DHT22;14253;44.840;10.444;2022-11-20T04:32:00;6.50;99.90
26621;DHT22;14253;44.840;10.444;2022-11-20T04:34:26;6.50;99.90
26621;DHT22;14253;44.840;10.444;2022-11-20T04:36:52;6.50;99.90
26621;DHT22;14253;44.840;10.444;2022-11-20T04:39:18;6.40;99.90
26621;DHT22;14253;44.840;10.444;2022-11-20T04:41:44;6.30;99.90
26621;DHT22;14253;44.840;10.444;2022-11-20T04:44:10;6.20;99.90
26621;DHT22;14253;44.840;10.444;2022-11-20T04:46:39;6.20;99.90
26621;DHT22;14253;44.840;10.444;2022-11-20T04:49:06;6.20;99.90
26621;DHT22;14253;44.840;10.444;2022-11-20T04:51:33;6.20;99.90
26621;DHT22;14253;44.840;10.444;2022-11-20T04:53:59;6.20;99.90
26621;DHT22;14253;44.840;10.444;2022-11-20T04:56:25;6.10;99.90
26621;DHT22;14253;44.840;10.444;2022-11-20T04:58:51;6.10;99.90
26621;DHT22;14253;44.840;10.444;2022-11-20T05:01:24;6.10;99.90
26621;DHT22;14253;44.840;10.444;2022-11-20T05:03:50;6.00;99.90
26621;DHT22;14253;44.840;10.444;2022-11-20T05:06:19;6.00;99.90
26621;DHT22;14253;44.840;10.444;2022-11-20T05:08:45;6.00;99.90
26621;DHT22;14253;44.840;10.444;2022-11-20T05:11:13;6.00;99.90
26621;DHT22;14253;44.840;10.444;2022-11-20T05:13:40;5.90;99.90
26621;DHT22;14253;44.840;10.444;2022-11-20T05:16:17;5.90;99.90
26621;DHT22;14253;44.840;10.444;2022-11-20T05:18:44;5.90;99.90
26621;DHT22;14253;44.840;10.444;2022-11-20T05:21:10;5.90;99.90
26621;DHT22;14253;44.840;10.444;2022-11-20T05:23:37;5.90;99.90
26621;DHT22;14253;44.840;10.444;2022-11-20T05:26:04;5.90;99.90
26621;DHT22;14253;44.840;10.444;2022-11-20T05:28:31;5.80;99.90
26621;DHT22;14253;44.840;10.444;2022-11-20T05:31:05;5.80;99.90
26621;DHT22;14253;44.840;10.444;2022-11-20T05:33:32;5.80;99.90
26621;DHT22;14253;44.840;10.444;2022-11-20T05:35:58;5.70;99.90
26621;DHT22;14253;44.840;10.444;2022-11-20T05:38:24;5.80;99.90
26621;DHT22;14253;44.840;10.444;2022-11-20T05:40:50;5.70;99.90
26621;DHT22;14253;44.840;10.444;2022-11-20T05:43:16;5.80;99.90
26621;DHT22;14253;44.840;10.444;2022-11-20T05:45:42;5.70;99.90
26621;DHT22;14253;44.840;10.444;2022-11-20T05:48:08;5.70;99.90
26621;DHT22;14253;44.840;10.444;2022-11-20T05:50:34;5.60;99.90
26621;DHT22;14253;44.840;10.444;2022-11-20T05:53:00;5.50;99.90
26621;DHT22;14253;44.840;10.444;2022-11-20T05:55:27;5.40;99.90
26621;DHT22;14253;44.840;10.444;2022-11-20T05:57:54;5.20;99.90
26621;DHT22;14253;44.840;10.444;2022-11-20T06:00:20;5.10;99.90
26621;DHT22;14253;44.840;10.444;2022-11-20T06:02:46;5.10;99.90
26621;DHT22;14253;44.840;10.444;2022-11-20T06:05:12;5.20;99.90
26621;DHT22;14253;44.840;10.444;2022-11-20T06:07:38;5.10;99.90
26621;DHT22;14253;44.840;10.444;2022-11-20T06:10:04;5.10;99.90
26621;DHT22;14253;44.840;10.444;2022-11-20T06:12:31;4.90;99.90
26621;DHT22;14253;44.840;10.444;2022-11-20T06:14:59;4.90;99.90
26621;DHT22;14253;44.840;10.444;2022-11-20T06:17:25;4.90;99.90
26621;DHT22;14253;44.840;10.444;2022-11-20T06:19:51;5.00;99.90
26621;DHT22;14253;44.840;10.444;2022-11-20T06:22:17;4.80;99.90
26621;DHT22;14253;44.840;10.444;2022-11-20T06:24:44;4.80;99.90
26621;DHT22;14253;44.840;10.444;2022-11-20T06:27:10;4.90;99.90
26621;DHT22;14253;44.840;10.444;2022-11-20T06:29:36;4.90;99.90
26621;DHT22;14253;44.840;10.444;2022-11-20T06:32:04;4.90;99.90
26621;DHT22;14253;44.840;10.444;2022-11-20T06:34:30;4.90;99.90
26621;DHT22;14253;44.840;10.444;2022-11-20T06:36:57;4.90;99.90
26621;DHT22;14253;44.840;10.444;2022-11-20T06:39:23;5.00;99.90
26621;DHT22;14253;44.840;10.444;2022-11-20T06:41:49;4.90;99.90
26621;DHT22;14253;44.840;10.444;2022-11-20T06:44:15;5.00;99.90
26621;DHT22;14253;44.840;10.444;2022-11-20T06:46:41;5.00;99.90
26621;DHT22;14253;44.840;10.444;2022-11-20T06:49:07;5.00;99.90
26621;DHT22;14253;44.840;10.444;2022-11-20T06:51:33;5.00;99.90
26621;DHT22;14253;44.840;10.444;2022-11-20T06:54:00;5.10;99.90
26621;DHT22;14253;44.840;10.444;2022-11-20T06:56:27;5.20;99.90
26621;DHT22;14253;44.840;10.444;2022-11-20T06:58:53;5.20;99.90
26621;DHT22;14253;44.840;10.444;2022-11-20T07:01:19;5.20;99.90
26621;DHT22;14253;44.840;10.444;2022-11-20T07:03:45;5.20;99.90
26621;DHT22;14253;44.840;10.444;2022-11-20T07:06:14;5.30;99.90
26621;DHT22;14253;44.840;10.444;2022-11-20T07:08:39;5.40;99.90
26621;DHT22;14253;44.840;10.444;2022-11-20T07:11:07;5.40;99.90
26621;DHT22;14253;44.840;10.444;2022-11-20T07:13:34;5.40;99.90
26621;DHT22;14253;44.840;10.444;2022-11-20T07:16:02;5.50;99.90
26621;DHT22;14253;44.840;10.444;2022-11-20T07:18:28;5.50;99.90
26621;DHT22;14253;44.840;10.444;2022-11-20T07:20:54;5.50;99.90
26621;DHT22;14253;44.840;10.444;2022-11-20T07:23:20;5.50;99.90
26621;DHT22;14253;44.840;10.444;2022-11-20T07:25:46;5.30;99.90
26621;DHT22;14253;44.840;10.444;2022-11-20T07:28:12;5.30;99.90
26621;DHT22;14253;44.840;10.444;2022-11-20T07:30:39;5.20;99.90
26621;DHT22;14253;44.840;10.444;2022-11-20T07:33:05;5.20;99.90
26621;DHT22;14253;44.840;10.444;2022-11-20T07:35:31;5.20;99.90
26621;DHT22;14253;44.840;10.444;2022-11-20T07:37:58;5.30;99.90
26621;DHT22;14253;44.840;10.444;2022-11-20T07:40:23;5.30;99.90
26621;DHT22;14253;44.840;10.444;2022-11-20T07:42:51;5.40;99.90
26621;DHT22;14253;44.840;10.444;2022-11-20T07:45:21;5.40;99.90
26621;DHT22;14253;44.840;10.444;2022-11-20T07:47:48;5.40;99.90
26621;DHT22;14253;44.840;10.444;2022-11-20T07:50:14;5.40;99.90
26621;DHT22;14253;44.840;10.444;2022-11-20T07:52:40;5.40;99.90
26621;DHT22;14253;44.840;10.444;2022-11-20T07:55:08;5.50;99.90
26621;DHT22;14253;44.840;10.444;2022-11-20T07:57:34;5.60;99.90
26621;DHT22;14253;44.840;10.444;2022-11-20T08:00:00;5.70;99.90
26621;DHT22;14253;44.840;10.444;2022-11-20T08:02:47;5.80;99.90
26621;DHT22;14253;44.840;10.444;2022-11-20T08:05:13;5.90;99.90
26621;DHT22;14253;44.840;10.444;2022-11-20T08:07:40;6.10;99.90
26621;DHT22;14253;44.840;10.444;2022-11-20T08:10:08;6.20;99.90
26621;DHT22;14253;44.840;10.444;2022-11-20T08:12:34;6.30;99.90
26621;DHT22;14253;44.840;10.444;2022-11-20T08:15:19;6.40;99.90
26621;DHT22;14253;44.840;10.444;2022-11-20T08:17:45;6.60;99.90
26621;DHT22;14253;44.840;10.444;2022-11-20T08:20:11;6.70;99.90
26621;DHT22;14253;44.840;10.444;2022-11-20T08:22:37;6.90;99.90
26621;DHT22;14253;44.840;10.444;2022-11-20T08:25:19;6.90;99.90
26621;DHT22;14253;44.840;10.444;2022-11-20T08:27:47;7.00;99.90
26621;DHT22;14253;44.840;10.444;2022-11-20T08:30:13;7.10;99.90
26621;DHT22;14253;44.840;10.444;2022-11-20T08:32:39;7.10;99.90
26621;DHT22;14253;44.840;10.444;2022-11-20T08:35:05;7.20;99.90
26621;DHT22;14253;44.840;10.444;2022-11-20T08:37:31;7.20;99.90
26621;DHT22;14253;44.840;10.444;2022-11-20T08:39:57;7.30;99.90
26621;DHT22;14253;44.840;10.444;2022-11-20T08:42:23;7.40;99.90
26621;DHT22;14253;44.840;10.444;2022-11-20T08:44:49;7.50;99.90
26621;DHT22;14253;44.840;10.444;2022-11-20T08:47:15;7.60;99.90
26621;DHT22;14253;44.840;10.444;2022-11-20T08:49:41;7.70;99.90
26621;DHT22;14253;44.840;10.444;2022-11-20T08:52:07;7.70;99.90
26621;DHT22;14253;44.840;10.444;2022-11-20T08:54:33;7.80;99.90
26621;DHT22;14253;44.840;10.444;2022-11-20T08:56:59;7.80;99.90
26621;DHT22;14253;44.840;10.444;2022-11-20T08:59:25;7.80;99.90
26621;DHT22;14253;44.840;10.444;2022-11-20T09:01:51;7.90;99.90
26621;DHT22;14253;44.840;10.444;2022-11-20T09:04:17;8.00;99.90
26621;DHT22;14253;44.840;10.444;2022-11-20T09:06:43;8.00;99.90
26621;DHT22;14253;44.840;10.444;2022-11-20T09:09:10;7.90;99.90
26621;DHT22;14253;44.840;10.444;2022-11-20T09:11:36;8.00;99.90
26621;DHT22;14253;44.840;10.444;2022-11-20T09:14:02;8.10;99.90
26621;DHT22;14253;44.840;10.444;2022-11-20T09:16:30;8.10;99.90
26621;DHT22;14253;44.840;10.444;2022-11-20T09:18:56;8.20;99.90
26621;DHT22;14253;44.840;10.444;2022-11-20T09:21:23;8.30;99.90
26621;DHT22;14253;44.840;10.444;2022-11-20T09:23:50;8.30;99.90
26621;DHT22;14253;44.840;10.444;2022-11-20T09:26:16;8.20;99.90
26621;DHT22;14253;44.840;10.444;2022-11-20T09:28:43;8.10;99.90
26621;DHT22;14253;44.840;10.444;2022-11-20T09:31:18;8.10;99.90
26621;DHT22;14253;44.840;10.444;2022-11-20T09:33:45;8.00;99.90
26621;DHT22;14253;44.840;10.444;2022-11-20T09:36:11;8.00;99.90
26621;DHT22;14253;44.840;10.444;2022-11-20T09:38:37;8.00;99.90
26621;DHT22;14253;44.840;10.444;2022-11-20T09:41:05;7.90;99.90
26621;DHT22;14253;44.840;10.444;2022-11-20T09:48:40;7.70;99.90
26621;DHT22;14253;44.840;10.444;2022-11-20T09:54:19;7.80;99.90
26621;DHT22;14253;44.840;10.444;2022-11-20T09:56:53;7.90;99.90
26621;DHT22;14253;44.840;10.444;2022-11-20T10:01:55;7.90;99.90
26621;DHT22;14253;44.840;10.444;2022-11-20T10:04:23;7.90;99.90
26621;DHT22;14253;44.840;10.444;2022-11-20T10:07:13;7.90;99.90
26621;DHT22;14253;44.840;10.444;2022-11-20T10:09:47;7.80;99.90
26621;DHT22;14253;44.840;10.444;2022-11-20T10:12:46;7.70;99.90
26621;DHT22;14253;44.840;10.444;2022-11-20T10:28:48;8.20;99.90
26621;DHT22;14253;44.840;10.444;2022-11-20T10:31:37;8.20;99.90
26621;DHT22;14253;44.840;10.444;2022-11-20T10:34:12;8.30;99.90
26621;DHT22;14253;44.840;10.444;2022-11-20T10:36:52;8.30;99.90
26621;DHT22;14253;44.840;10.444;2022-11-20T10:41:57;8.60;99.90
26621;DHT22;14253;44.840;10.444;2022-11-20T10:44:28;8.70;99.90
26621;DHT22;14253;44.840;10.444;2022-11-20T10:47:15;8.80;99.90
26621;DHT22;14253;44.840;10.444;2022-11-20T10:49:52;8.90;99.90
26621;DHT22;14253;44.840;10.444;2022-11-20T11:00:15;9.10;99.90
26621;DHT22;14253;44.840;10.444;2022-11-20T11:02:48;9.30;99.90
26621;DHT22;14253;44.840;10.444;2022-11-20T11:05:25;9.50;99.90
26621;DHT22;14253;44.840;10.444;2022-11-20T11:07:56;9.70;99.90
26621;DHT22;14253;44.840;10.444;2022-11-20T11:10:41;9.60;99.90
26621;DHT22;14253;44.840;10.444;2022-11-20T11:13:22;9.60;99.90
26621;DHT22;14253;44.840;10.444;2022-11-20T11:15:50;9.60;99.90
26621;DHT22;14253;44.840;10.444;2022-11-20T11:18:43;9.60;99.90
26621;DHT22;14253;44.840;10.444;2022-11-20T11:21:09;9.60;99.90
26621;DHT22;14253;44.840;10.444;2022-11-20T11:23:41;9.70;99.90
26621;DHT22;14253;44.840;10.444;2022-11-20T11:26:34;9.80;99.90
26621;DHT22;14253;44.840;10.444;2022-11-20T11:29:03;9.90;99.90
26621;DHT22;14253;44.840;10.444;2022-11-20T11:31:34;9.90;99.90
26621;DHT22;14253;44.840;10.444;2022-11-20T11:34:04;9.90;99.90
26621;DHT22;14253;44.840;10.444;2022-11-20T11:36:35;10.10;99.90
26621;DHT22;14253;44.840;10.444;2022-11-20T11:39:03;10.20;99.90
26621;DHT22;14253;44.840;10.444;2022-11-20T11:41:33;10.30;99.90
26621;DHT22;14253;44.840;10.444;2022-11-20T11:44:20;10.40;99.90
26621;DHT22;14253;44.840;10.444;2022-11-20T11:47:10;10.40;99.90
26621;DHT22;14253;44.840;10.444;2022-11-20T11:49:37;10.30;99.90
26621;DHT22;14253;44.840;10.444;2022-11-20T11:52:17;10.30;99.90
26621;DHT22;14253;44.840;10.444;2022-11-20T11:55:02;10.30;99.90
26621;DHT22;14253;44.840;10.444;2022-11-20T12:00:40;10.20;99.90
26621;DHT22;14253;44.840;10.444;2022-11-20T12:05:49;10.50;99.90
26621;DHT22;14253;44.840;10.444;2022-11-20T12:16:01;10.60;99.90
26621;DHT22;14253;44.840;10.444;2022-11-20T12:18:29;10.60;99.90
26621;DHT22;14253;44.840;10.444;2022-11-20T12:23:56;10.80;99.90
26621;DHT22;14253;44.840;10.444;2022-11-20T12:26:59;11.00;99.90
26621;DHT22;14253;44.840;10.444;2022-11-20T12:33:05;11.10;99.90
26621;DHT22;14253;44.840;10.444;2022-11-20T12:35:54;11.30;99.90
26621;DHT22;14253;44.840;10.444;2022-11-20T12:50:37;11.50;99.90
26621;DHT22;14253;44.840;10.444;2022-11-20T12:53:40;11.60;99.90
26621;DHT22;14253;44.840;10.444;2022-11-20T13:07:05;11.80;99.90
26621;DHT22;14253;44.840;10.444;2022-11-20T13:09:45;11.80;99.90
26621;DHT22;14253;44.840;10.444;2022-11-20T13:17:56;11.80;99.90
26621;DHT22;14253;44.840;10.444;2022-11-20T13:20:23;11.80;99.90
26621;DHT22;14253;44.840;10.444;2022-11-20T13:22:51;11.90;99.90
26621;DHT22;14253;44.840;10.444;2022-11-20T13:25:34;12.10;99.90
26621;DHT22;14253;44.840;10.444;2022-11-20T13:30:53;12.20;99.90
26621;DHT22;14253;44.840;10.444;2022-11-20T13:33:30;12.40;99.90
26621;DHT22;14253;44.840;10.444;2022-11-20T13:36:19;12.40;99.90
26621;DHT22;14253;44.840;10.444;2022-11-20T13:38:50;12.50;99.90
26621;DHT22;14253;44.840;10.444;2022-11-20T13:41:35;12.60;99.90
26621;DHT22;14253;44.840;10.444;2022-11-20T13:44:13;12.50;99.90
26621;DHT22;14253;44.840;10.444;2022-11-20T13:46:49;12.60;99.90
26621;DHT22;14253;44.840;10.444;2022-11-20T13:49:32;12.60;99.90
26621;DHT22;14253;44.840;10.444;2022-11-20T13:55:45;12.70;99.90
26621;DHT22;14253;44.840;10.444;2022-11-20T14:01:21;12.70;99.90
26621;DHT22;14253;44.840;10.444;2022-11-20T14:04:12;12.60;99.90
26621;DHT22;14253;44.840;10.444;2022-11-20T14:06:54;12.40;99.90
26621;DHT22;14253;44.840;10.444;2022-11-20T14:10:03;12.50;99.90
26621;DHT22;14253;44.840;10.444;2022-11-20T14:12:44;12.40;99.90
26621;DHT22;14253;44.840;10.444;2022-11-20T14:15:33;12.40;99.90
26621;DHT22;14253;44.840;10.444;2022-11-20T14:18:26;12.40;99.90
26621;DHT22;14253;44.840;10.444;2022-11-20T14:21:28;12.40;99.90
26621;DHT22;14253;44.840;10.444;2022-11-20T14:24:10;12.30;99.90
26621;DHT22;14253;44.840;10.444;2022-11-20T14:26:52;12.20;99.90
26621;DHT22;14253;44.840;10.444;2022-11-20T14:29:23;12.20;99.90
26621;DHT22;14253;44.840;10.444;2022-11-20T14:31:54;12.10;99.90
26621;DHT22;14253;44.840;10.444;2022-11-20T14:34:33;12.00;99.90
26621;DHT22;14253;44.840;10.444;2022-11-20T14:37:10;12.00;99.90
26621;DHT22;14253;44.840;10.444;2022-11-20T14:39:47;11.90;99.90
26621;DHT22;14253;44.840;10.444;2022-11-20T14:42:25;11.80;99.90
26621;DHT22;14253;44.840;10.444;2022-11-20T14:44:55;11.70;99.90
26621;DHT22;14253;44.840;10.444;2022-11-20T14:47:32;11.60;99.90
26621;DHT22;14253;44.840;10.444;2022-11-20T14:50:02;11.50;99.90
26621;DHT22;14253;44.840;10.444;2022-11-20T14:52:29;11.50;99.90
26621;DHT22;14253;44.840;10.444;2022-11-20T14:54:58;11.50;99.90
26621;DHT22;14253;44.840;10.444;2022-11-20T14:57:33;11.50;99.90
26621;DHT22;14253;44.840;10.444;2022-11-20T15:00:28;11.40;99.90
26621;DHT22;14253;44.840;10.444;2022-11-20T15:02:57;11.30;99.90
26621;DHT22;14253;44.840;10.444;2022-11-20T15:05:43;11.20;99.90
26621;DHT22;14253;44.840;10.444;2022-11-20T15:08:10;11.20;99.90
26621;DHT22;14253;44.840;10.444;2022-11-20T15:10:37;11.10;99.90
26621;DHT22;14253;44.840;10.444;2022-11-20T15:13:10;11.00;99.90
26621;DHT22;14253;44.840;10.444;2022-11-20T15:15:56;10.90;99.90
26621;DHT22;14253;44.840;10.444;2022-11-20T15:18:41;10.80;99.90
26621;DHT22;14253;44.840;10.444;2022-11-20T15:21:15;10.80;99.90
26621;DHT22;14253;44.840;10.444;2022-11-20T15:23:42;10.70;99.90
26621;DHT22;14253;44.840;10.444;2022-11-20T15:26:10;10.60;99.90
26621;DHT22;14253;44.840;10.444;2022-11-20T15:28:39;10.50;99.90
26621;DHT22;14253;44.840;10.444;2022-11-20T15:31:06;10.30;99.90
26621;DHT22;14253;44.840;10.444;2022-11-20T15:33:33;10.30;99.90
26621;DHT22;14253;44.840;10.444;2022-11-20T15:35:59;10.10;99.90
26621;DHT22;14253;44.840;10.444;2022-11-20T15:38:25;10.00;99.90
26621;DHT22;14253;44.840;10.444;2022-11-20T15:40:52;9.90;99.90
26621;DHT22;14253;44.840;10.444;2022-11-20T15:43:18;9.80;99.90
26621;DHT22;14253;44.840;10.444;2022-11-20T15:45:50;9.70;99.90
26621;DHT22;14253;44.840;10.444;2022-11-20T15:48:24;9.60;99.90
26621;DHT22;14253;44.840;10.444;2022-11-20T15:51:11;9.50;99.90
26621;DHT22;14253;44.840;10.444;2022-11-20T15:53:41;9.40;99.90
26621;DHT22;14253;44.840;10.444;2022-11-20T15:56:14;9.30;99.90
26621;DHT22;14253;44.840;10.444;2022-11-20T15:58:41;9.20;99.90
26621;DHT22;14253;44.840;10.444;2022-11-20T16:01:16;9.20;99.90
26621;DHT22;14253;44.840;10.444;2022-11-20T16:03:42;9.10;99.90
26621;DHT22;14253;44.840;10.444;2022-11-20T16:06:09;9.00;99.90
26621;DHT22;14253;44.840;10.444;2022-11-20T16:08:34;9.00;99.90
26621;DHT22;14253;44.840;10.444;2022-11-20T16:11:01;9.00;99.90
26621;DHT22;14253;44.840;10.444;2022-11-20T16:13:27;8.90;99.90
26621;DHT22;14253;44.840;10.444;2022-11-20T16:16:23;8.90;99.90
26621;DHT22;14253;44.840;10.444;2022-11-20T16:18:50;8.80;99.90
26621;DHT22;14253;44.840;10.444;2022-11-20T16:21:16;8.70;99.90
26621;DHT22;14253;44.840;10.444;2022-11-20T16:23:42;8.70;99.90
26621;DHT22;14253;44.840;10.444;2022-11-20T16:26:21;8.60;99.90
26621;DHT22;14253;44.840;10.444;2022-11-20T16:28:53;8.60;99.90
26621;DHT22;14253;44.840;10.444;2022-11-20T16:31:20;8.60;99.90
26621;DHT22;14253;44.840;10.444;2022-11-20T16:33:59;8.50;99.90
26621;DHT22;14253;44.840;10.444;2022-11-20T16:36:30;8.50;99.90
26621;DHT22;14253;44.840;10.444;2022-11-20T16:39:00;8.40;99.90
26621;DHT22;14253;44.840;10.444;2022-11-20T16:41:29;8.40;99.90
26621;DHT22;14253;44.840;10.444;2022-11-20T16:43:57;8.40;99.90
26621;DHT22;14253;44.840;10.444;2022-11-20T16:46:25;8.40;99.90
26621;DHT22;14253;44.840;10.444;2022-11-20T16:51:20;8.30;99.90
26621;DHT22;14253;44.840;10.444;2022-11-20T16:53:46;8.20;99.90
26621;DHT22;14253;44.840;10.444;2022-11-20T16:56:14;8.20;99.90
26621;DHT22;14253;44.840;10.444;2022-11-20T16:58:44;8.20;99.90
26621;DHT22;14253;44.840;10.444;2022-11-20T17:01:11;8.10;99.90
26621;DHT22;14253;44.840;10.444;2022-11-20T17:03:42;8.10;99.90
26621;DHT22;14253;44.840;10.444;2022-11-20T17:06:20;8.00;99.90
26621;DHT22;14253;44.840;10.444;2022-11-20T17:08:47;8.00;99.90
26621;DHT22;14253;44.840;10.444;2022-11-20T17:11:18;8.00;99.90
26621;DHT22;14253;44.840;10.444;2022-11-20T17:13:44;7.90;99.90
26621;DHT22;14253;44.840;10.444;2022-11-20T17:16:13;7.80;99.90
26621;DHT22;14253;44.840;10.444;2022-11-20T17:18:39;7.80;99.90
26621;DHT22;14253;44.840;10.444;2022-11-20T17:21:06;7.80;99.90
26621;DHT22;14253;44.840;10.444;2022-11-20T17:23:34;7.80;99.90
26621;DHT22;14253;44.840;10.444;2022-11-20T17:26:08;7.70;99.90
26621;DHT22;14253;44.840;10.444;2022-11-20T17:28:36;7.70;99.90
26621;DHT22;14253;44.840;10.444;2022-11-20T17:31:05;7.70;99.90
26621;DHT22;14253;44.840;10.444;2022-11-20T17:33:32;7.70;99.90